createdAt,value
2018-07-06T00:01:05.814Z,78.92
2018-07-06T00:02:07.670Z,78.63
2018-07-06T00:04:11.976Z,79.02
2018-07-06T00:06:31.138Z,79.11
2018-07-06T00:07:34.935Z,78.92
2018-07-06T00:08:50.404Z,78.92
2018-07-06T00:09:43.243Z,79.30
2018-07-06T00:10:55.065Z,79.88
2018-07-06T00:14:18.906Z,79.50
2018-07-06T00:17:22.818Z,78.92
2018-07-06T00:18:33.577Z,78.92
2018-07-06T00:19:30.511Z,78.92
2018-07-06T00:21:50.493Z,79.02
2018-07-06T00:22:50.910Z,79.02
2018-07-06T00:23:58.494Z,78.83
2018-07-06T00:26:11.923Z,79.40
2018-07-06T00:27:15.615Z,79.30
2018-07-06T00:29:30.681Z,79.40
2018-07-06T00:30:33.862Z,78.59
2018-07-06T00:31:43.811Z,78.78
2018-07-06T00:32:43.616Z,78.88
2018-07-06T00:33:50.369Z,79.75
2018-07-06T00:34:52.425Z,80.22
2018-07-06T00:36:04.318Z,80.42
2018-07-06T00:37:09.132Z,80.04
2018-07-06T00:38:05.860Z,80.13
2018-07-06T00:39:20.613Z,80.13
2018-07-06T00:40:15.514Z,80.66
2018-07-06T00:41:32.401Z,81.15
2018-07-06T00:42:29.336Z,81.05
2018-07-06T00:44:49.114Z,81.63
2018-07-06T00:46:05.507Z,81.15
2018-07-06T00:47:01.518Z,81.43
2018-07-06T00:47:58.248Z,81.63
2018-07-06T00:49:15.354Z,82.01
2018-07-06T00:51:26.948Z,81.72
2018-07-06T00:52:30.430Z,81.53
2018-07-06T00:53:40.575Z,81.63
2018-07-06T00:54:38.635Z,81.43
2018-07-06T00:55:35.671Z,81.72
2018-07-06T00:56:56.374Z,81.72
2018-07-06T00:57:56.479Z,81.63
2018-07-06T00:59:01.599Z,81.24
2018-07-06T01:00:18.401Z,81.53
2018-07-06T01:01:16.668Z,81.72
2018-07-06T01:02:14.523Z,81.82
2018-07-06T01:03:31.117Z,81.43
2018-07-06T01:04:18.324Z,81.53
2018-07-06T01:05:44.546Z,81.63
2018-07-06T01:06:35.952Z,81.63
2018-07-06T01:07:49.270Z,82.10
2018-07-06T01:09:58.295Z,81.82
2018-07-06T01:11:07.518Z,81.53
2018-07-06T01:12:13.161Z,81.53
2018-07-06T01:13:05.688Z,81.43
2018-07-06T01:14:11.123Z,81.53
2018-07-06T01:15:51.167Z,82.26
2018-07-06T01:16:28.853Z,82.16
2018-07-06T01:17:41.759Z,82.07
2018-07-06T01:18:59.790Z,82.35
2018-07-06T01:19:50.580Z,82.64
2018-07-06T01:21:04.005Z,82.84
2018-07-06T01:21:57.555Z,83.03
2018-07-06T01:23:25.416Z,82.74
2018-07-06T01:24:29.111Z,83.12
2018-07-06T01:25:17.649Z,82.84
2018-07-06T01:26:39.474Z,83.41
2018-07-06T01:28:30.776Z,82.93
2018-07-06T01:30:44.511Z,83.41
2018-07-06T01:32:56.925Z,83.70
2018-07-06T01:35:05.019Z,83.70
2018-07-06T01:36:01.443Z,83.51
2018-07-06T01:37:05.441Z,84.18
2018-07-06T01:38:15.491Z,84.27
2018-07-06T01:39:28.187Z,84.08
2018-07-06T01:40:32.393Z,83.75
2018-07-06T01:42:47.665Z,83.98
2018-07-06T01:43:49.924Z,83.80
2018-07-06T01:44:53.721Z,84.08
2018-07-06T01:46:55.477Z,83.56
2018-07-06T01:48:19.544Z,83.85
2018-07-06T01:49:10.540Z,83.70
2018-07-06T01:50:24.373Z,83.70
2018-07-06T01:51:24.587Z,83.98
2018-07-06T01:52:37.492Z,83.80
2018-07-06T01:53:33.403Z,84.14
2018-07-06T01:54:31.772Z,84.42
2018-07-06T01:57:56.573Z,84.14
2018-07-06T01:59:01.289Z,84.71
2018-07-06T02:00:02.730Z,84.81
2018-07-06T02:01:18.712Z,84.81
2018-07-06T02:02:32.355Z,84.81
2018-07-06T02:03:21.695Z,85.10
2018-07-06T02:04:22.624Z,85.10
2018-07-06T02:05:35.736Z,85.00
2018-07-06T02:06:38.306Z,85.00
2018-07-06T02:07:45.789Z,84.61
2018-07-06T02:08:52.756Z,85.28
2018-07-06T02:09:57.268Z,84.61
2018-07-06T02:12:05.372Z,85.00
2018-07-06T02:13:06.300Z,84.81
2018-07-06T02:14:16.956Z,85.19
2018-07-06T02:15:16.144Z,85.19
2018-07-06T02:16:24.342Z,84.71
2018-07-06T02:17:35.922Z,85.10
2018-07-06T02:18:36.746Z,85.10
2018-07-06T02:19:36.140Z,84.81
2018-07-06T02:20:42.699Z,84.71
2018-07-06T02:21:56.530Z,84.71
2018-07-06T02:23:01.657Z,85.19
2018-07-06T02:24:04.429Z,85.00
2018-07-06T02:25:11.398Z,85.19
2018-07-06T02:26:17.760Z,84.81
2018-07-06T02:27:31.690Z,84.91
2018-07-06T02:28:25.755Z,84.71
2018-07-06T02:29:33.036Z,85.10
2018-07-06T02:30:44.816Z,84.71
2018-07-06T02:31:39.702Z,84.71
2018-07-06T02:32:54.557Z,84.81
2018-07-06T02:34:06.238Z,85.00
2018-07-06T02:34:59.798Z,85.10
2018-07-06T02:37:07.795Z,85.10
2018-07-06T02:38:11.795Z,85.10
2018-07-06T02:39:23.990Z,85.28
2018-07-06T02:40:27.988Z,85.10
2018-07-06T02:41:36.902Z,84.91
2018-07-06T02:42:42.644Z,85.19
2018-07-06T02:43:45.828Z,85.67
2018-07-06T02:44:50.028Z,85.00
2018-07-06T02:45:58.375Z,85.38
2018-07-06T02:47:01.518Z,85.28
2018-07-06T02:48:09.003Z,85.28
2018-07-06T02:49:14.838Z,85.77
2018-07-06T02:50:12.082Z,85.10
2018-07-06T02:51:22.329Z,85.19
2018-07-06T02:52:30.737Z,85.28
2018-07-06T02:53:28.280Z,84.71
2018-07-06T02:54:39.551Z,84.91
2018-07-06T02:55:55.841Z,85.19
2018-07-06T02:56:47.961Z,85.19
2018-07-06T02:57:56.376Z,85.19
2018-07-06T02:59:03.950Z,85.19
2018-07-06T03:00:16.757Z,85.28
2018-07-06T03:01:16.150Z,85.48
2018-07-06T03:02:14.824Z,85.38
2018-07-06T03:03:26.709Z,85.00
2018-07-06T03:04:43.527Z,85.28
2018-07-06T03:05:35.735Z,85.28
2018-07-06T03:07:38.206Z,84.91
2018-07-06T03:08:52.139Z,85.10
2018-07-06T03:09:59.435Z,85.28
2018-07-06T03:10:59.323Z,84.71
2018-07-06T03:12:18.886Z,84.91
2018-07-06T03:13:15.309Z,84.71
2018-07-06T03:14:19.209Z,84.91
2018-07-06T03:15:15.231Z,84.81
2018-07-06T03:16:31.389Z,85.10
2018-07-06T03:17:40.117Z,85.00
2018-07-06T03:18:37.359Z,84.71
2018-07-06T03:19:51.192Z,84.91
2018-07-06T03:20:50.684Z,84.71
2018-07-06T03:22:06.768Z,84.42
2018-07-06T03:22:58.788Z,84.52
2018-07-06T03:25:09.451Z,84.04
2018-07-06T03:26:21.235Z,84.04
2018-07-06T03:27:20.219Z,83.56
2018-07-06T03:29:37.536Z,83.52
2018-07-06T03:30:41.641Z,83.61
2018-07-06T03:31:53.628Z,84.09
2018-07-06T03:32:56.399Z,84.00
2018-07-06T03:34:06.236Z,84.00
2018-07-06T03:35:02.145Z,84.09
2018-07-06T03:36:08.897Z,84.38
2018-07-06T03:37:23.561Z,84.19
2018-07-06T03:38:17.629Z,84.95
2018-07-06T03:39:30.538Z,84.77
2018-07-06T03:40:30.399Z,85.15
2018-07-06T03:41:33.012Z,84.67
2018-07-06T03:42:38.656Z,84.95
2018-07-06T03:43:45.209Z,84.86
2018-07-06T03:46:01.400Z,84.95
2018-07-06T03:47:05.506Z,85.34
2018-07-06T03:48:11.585Z,85.05
2018-07-06T03:49:19.240Z,85.05
2018-07-06T03:50:19.964Z,84.58
2018-07-06T03:51:30.108Z,84.19
2018-07-06T03:52:32.673Z,84.77
2018-07-06T03:53:37.196Z,84.86
2018-07-06T03:54:48.264Z,85.15
2018-07-06T03:55:40.579Z,85.05
2018-07-06T03:56:56.458Z,85.05
2018-07-06T03:58:05.988Z,85.15
2018-07-06T03:58:59.442Z,85.05
2018-07-06T04:00:09.278Z,85.05
2018-07-06T04:01:13.280Z,84.95
2018-07-06T04:02:19.634Z,85.15
2018-07-06T04:03:30.085Z,85.72
2018-07-06T04:04:33.472Z,86.01
2018-07-06T04:05:39.215Z,86.40
2018-07-06T04:06:48.027Z,86.88
2018-07-06T04:07:46.191Z,87.26
2018-07-06T04:08:47.733Z,87.35
2018-07-06T04:09:57.675Z,87.74
2018-07-06T04:11:07.511Z,87.74
2018-07-06T04:12:04.445Z,88.22
2018-07-06T04:13:23.498Z,88.89
2018-07-06T04:15:21.363Z,87.64
2018-07-06T04:16:26.386Z,88.51
2018-07-06T04:17:38.476Z,88.60
2018-07-06T04:18:38.074Z,88.60
2018-07-06T04:20:48.838Z,88.98
2018-07-06T04:22:01.442Z,88.45
2018-07-06T04:23:05.755Z,88.26
2018-07-06T04:24:06.375Z,87.98
2018-07-06T04:25:19.996Z,88.07
2018-07-06T04:26:24.619Z,87.88
2018-07-06T04:27:31.069Z,88.45
2018-07-06T04:28:33.532Z,88.45
2018-07-06T04:29:31.594Z,88.26
2018-07-06T04:30:41.022Z,88.55
2018-07-06T04:31:50.346Z,87.78
2018-07-06T04:32:58.239Z,87.88
2018-07-06T04:34:03.061Z,87.88
2018-07-06T04:35:15.660Z,87.68
2018-07-06T04:36:09.928Z,87.21
2018-07-06T04:37:18.645Z,87.05
2018-07-06T04:39:34.120Z,87.30
2018-07-06T04:40:37.607Z,86.87
2018-07-06T04:41:36.283Z,86.96
2018-07-06T04:42:44.601Z,86.44
2018-07-06T04:43:48.585Z,86.38
2018-07-06T04:44:59.241Z,85.91
2018-07-06T04:46:03.655Z,86.29
2018-07-06T04:47:06.320Z,86.38
2018-07-06T04:48:03.665Z,86.38
2018-07-06T04:49:26.610Z,86.10
2018-07-06T04:50:25.389Z,86.48
2018-07-06T04:51:35.639Z,86.87
2018-07-06T04:52:35.853Z,86.58
2018-07-06T04:54:45.280Z,86.48
2018-07-06T04:55:51.743Z,86.29
2018-07-06T04:57:11.612Z,85.81
2018-07-06T04:58:15.099Z,85.81
2018-07-06T04:59:01.691Z,85.91
2018-07-06T05:00:19.106Z,85.62
2018-07-06T05:01:28.124Z,85.91
2018-07-06T05:02:28.131Z,86.00
2018-07-06T05:04:39.937Z,85.52
2018-07-06T05:05:47.709Z,85.24
2018-07-06T05:07:59.601Z,85.04
2018-07-06T05:09:16.507Z,85.24
2018-07-06T05:10:08.832Z,85.04
2018-07-06T05:11:16.110Z,85.33
2018-07-06T05:12:23.591Z,85.08
2018-07-06T05:13:30.663Z,85.18
2018-07-06T05:14:18.381Z,85.14
2018-07-06T05:15:32.110Z,85.28
2018-07-06T05:16:55.709Z,85.28
2018-07-06T05:17:38.575Z,85.18
2018-07-06T05:19:01.932Z,85.37
2018-07-06T05:20:14.636Z,84.89
2018-07-06T05:21:14.437Z,84.60
2018-07-06T05:22:09.118Z,84.70
2018-07-06T05:23:25.825Z,84.89
2018-07-06T05:24:26.437Z,84.80
2018-07-06T05:25:31.770Z,85.85
2018-07-06T05:26:38.638Z,85.37
2018-07-06T05:27:44.583Z,84.12
2018-07-06T05:28:36.201Z,84.41
2018-07-06T05:29:52.789Z,84.60
2018-07-06T05:31:06.618Z,84.22
2018-07-06T05:32:02.238Z,84.99
2018-07-06T05:33:06.428Z,84.80
2018-07-06T05:34:07.671Z,84.70
2018-07-06T05:35:30.814Z,84.70
2018-07-06T05:36:34.608Z,84.70
2018-07-06T05:37:36.868Z,85.08
2018-07-06T05:38:34.319Z,85.37
2018-07-06T05:40:05.146Z,84.47
2018-07-06T05:40:48.154Z,84.89
2018-07-06T05:41:46.111Z,85.08
2018-07-06T05:42:52.058Z,85.08
2018-07-06T05:44:06.306Z,85.24
2018-07-06T05:46:00.475Z,84.66
2018-07-06T05:47:28.131Z,85.33
2018-07-06T05:48:25.473Z,85.14
2018-07-06T05:49:39.102Z,85.14
2018-07-06T05:50:39.728Z,85.04
2018-07-06T05:51:43.722Z,84.85
2018-07-06T05:52:45.573Z,85.33
2018-07-06T05:53:46.932Z,85.24
2018-07-06T05:54:57.671Z,84.95
2018-07-06T05:55:55.322Z,85.24
2018-07-06T05:57:09.562Z,85.62
2018-07-06T05:58:08.544Z,84.85
2018-07-06T05:59:09.700Z,85.91
2018-07-06T06:00:14.811Z,86.10
2018-07-06T06:03:44.214Z,84.85
2018-07-06T06:04:31.970Z,85.14
2018-07-06T06:05:48.425Z,85.42
2018-07-06T06:06:56.728Z,85.33
2018-07-06T06:09:03.092Z,85.24
2018-07-06T06:11:09.144Z,84.27
2018-07-06T06:12:19.911Z,84.66
2018-07-06T06:16:42.056Z,84.31
2018-07-06T06:17:54.342Z,84.31
2018-07-06T06:18:53.347Z,84.31
2018-07-06T06:19:54.459Z,84.60
2018-07-06T06:21:03.068Z,83.93
2018-07-06T06:22:06.249Z,83.84
2018-07-06T06:23:27.056Z,84.12
2018-07-06T06:24:14.661Z,84.31
2018-07-06T06:25:36.890Z,84.22
2018-07-06T06:26:24.578Z,84.12
2018-07-06T06:27:47.580Z,84.03
2018-07-06T06:28:40.389Z,83.74
2018-07-06T06:30:54.842Z,83.84
2018-07-06T06:31:55.582Z,84.12
2018-07-06T06:33:05.669Z,83.93
2018-07-06T06:34:10.324Z,83.74
2018-07-06T06:35:22.516Z,84.22
2018-07-06T06:37:54.376Z,84.41
2018-07-06T06:38:46.198Z,84.12
2018-07-06T06:40:01.662Z,83.93
2018-07-06T06:40:45.696Z,83.93
2018-07-06T06:41:53.789Z,84.03
2018-07-06T06:42:50.212Z,84.12
2018-07-06T06:44:08.448Z,84.17
2018-07-06T06:45:27.584Z,83.93
2018-07-06T06:46:16.755Z,83.78
2018-07-06T06:47:15.635Z,83.64
2018-07-06T06:48:47.387Z,83.74
2018-07-06T06:49:43.091Z,83.78
2018-07-06T06:50:44.127Z,84.26
2018-07-06T06:52:00.586Z,84.07
2018-07-06T06:52:44.136Z,83.78
2018-07-06T06:55:09.238Z,83.87
2018-07-06T06:55:56.657Z,83.69
2018-07-06T06:57:23.487Z,83.49
2018-07-06T06:58:14.687Z,83.20
2018-07-06T06:59:30.462Z,82.92
2018-07-06T07:00:12.855Z,83.01
2018-07-06T07:01:30.269Z,82.92
2018-07-06T07:02:37.455Z,82.92
2018-07-06T07:03:48.716Z,83.59
2018-07-06T07:04:43.604Z,83.30
2018-07-06T07:05:49.967Z,83.30
2018-07-06T07:06:53.651Z,82.73
2018-07-06T07:08:07.897Z,82.92
2018-07-06T07:09:11.380Z,82.73
2018-07-06T07:11:24.591Z,82.92
2018-07-06T07:12:25.122Z,82.86
2018-07-06T07:13:24.106Z,82.57
2018-07-06T07:15:44.908Z,82.96
2018-07-06T07:16:47.511Z,82.29
2018-07-06T07:17:54.649Z,82.29
2018-07-06T07:18:55.278Z,82.09
2018-07-06T07:19:57.017Z,82.09
2018-07-06T07:20:59.005Z,82.38
2018-07-06T07:22:20.900Z,82.29
2018-07-06T07:23:09.233Z,82.09
2018-07-06T07:24:23.669Z,82.09
2018-07-06T07:25:36.270Z,81.23
2018-07-06T07:26:24.919Z,81.04
2018-07-06T07:27:38.643Z,81.81
2018-07-06T07:28:59.025Z,82.09
2018-07-06T07:29:51.760Z,81.61
2018-07-06T07:30:51.768Z,82.38
2018-07-06T07:32:10.310Z,82.29
2018-07-06T07:34:09.513Z,81.61
2018-07-06T07:35:18.599Z,81.71
2018-07-06T07:36:30.519Z,81.71
2018-07-06T07:37:28.601Z,81.52
2018-07-06T07:38:38.824Z,81.32
2018-07-06T07:39:42.919Z,81.23
2018-07-06T07:40:42.414Z,81.52
2018-07-06T07:41:59.514Z,81.52
2018-07-06T07:42:58.606Z,81.27
2018-07-06T07:44:04.254Z,81.46
2018-07-06T07:45:04.047Z,81.37
2018-07-06T07:46:11.517Z,81.46
2018-07-06T07:47:28.334Z,81.07
2018-07-06T07:48:17.278Z,81.17
2018-07-06T07:50:36.850Z,80.79
2018-07-06T07:51:46.790Z,80.79
2018-07-06T07:53:57.557Z,80.21
2018-07-06T07:55:00.094Z,80.40
2018-07-06T07:56:06.610Z,80.40
2018-07-06T07:56:56.141Z,80.21
2018-07-06T07:58:14.990Z,80.98
2018-07-06T08:00:22.580Z,80.02
2018-07-06T08:01:39.131Z,80.11
2018-07-06T08:02:43.588Z,80.02
2018-07-06T08:03:40.950Z,79.82
2018-07-06T08:04:47.609Z,79.44
2018-07-06T08:06:01.015Z,79.53
2018-07-06T08:06:49.246Z,79.05
2018-07-06T08:08:02.976Z,79.63
2018-07-06T08:09:07.696Z,79.53
2018-07-06T08:10:12.308Z,79.58
2018-07-06T08:11:21.644Z,79.48
2018-07-06T08:12:18.873Z,80.15
2018-07-06T08:13:26.614Z,78.61
2018-07-06T08:14:33.289Z,78.61
2018-07-06T08:15:39.173Z,78.71
2018-07-06T08:16:50.237Z,78.42
2018-07-06T08:17:47.420Z,78.81
2018-07-06T08:19:01.516Z,79.00
2018-07-06T08:19:55.376Z,78.61
2018-07-06T08:22:16.616Z,78.52
2018-07-06T08:23:26.425Z,78.42
2018-07-06T08:24:24.077Z,77.94
2018-07-06T08:25:30.479Z,78.71
2018-07-06T08:26:35.568Z,77.75
2018-07-06T08:27:40.487Z,78.13
2018-07-06T08:28:41.205Z,77.94
2018-07-06T08:29:47.253Z,77.46
2018-07-06T08:30:51.253Z,77.75
2018-07-06T08:32:05.595Z,77.17
2018-07-06T08:33:09.627Z,77.08
2018-07-06T08:35:23.844Z,76.92
2018-07-06T08:37:33.891Z,76.44
2018-07-06T08:38:35.025Z,77.11
2018-07-06T08:40:48.148Z,77.11
2018-07-06T08:41:56.039Z,77.11
2018-07-06T08:42:52.256Z,77.21
2018-07-06T08:44:07.218Z,76.18
2018-07-06T08:45:12.546Z,75.32
2018-07-06T08:46:19.825Z,74.36
2018-07-06T08:47:17.378Z,73.97
2018-07-06T08:48:22.912Z,74.07
2018-07-06T08:49:31.006Z,74.36
2018-07-06T08:50:42.786Z,74.07
2018-07-06T08:51:40.951Z,73.97
2018-07-06T08:52:52.221Z,73.88
2018-07-06T08:53:57.453Z,74.20
2018-07-06T08:55:05.343Z,73.62
2018-07-06T08:56:00.434Z,73.24
2018-07-06T08:57:13.753Z,72.08
2018-07-06T08:58:20.322Z,72.08
2018-07-06T08:59:23.802Z,71.89
2018-07-06T09:00:21.257Z,72.18
2018-07-06T09:01:39.075Z,71.60
2018-07-06T09:02:47.068Z,72.56
2018-07-06T09:03:46.459Z,72.18
2018-07-06T09:04:56.605Z,71.41
2018-07-06T09:05:58.658Z,71.50
2018-07-06T09:07:05.533Z,71.41
2018-07-06T09:08:10.056Z,71.12
2018-07-06T09:09:15.640Z,71.12
2018-07-06T09:10:22.656Z,71.98
2018-07-06T09:13:30.565Z,70.67
2018-07-06T09:14:42.631Z,70.57
2018-07-06T09:15:46.747Z,70.76
2018-07-06T09:16:56.378Z,70.67
2018-07-06T09:17:57.638Z,70.09
2018-07-06T09:18:58.347Z,70.67
2018-07-06T09:20:17.862Z,70.67
2018-07-06T09:21:08.797Z,70.70
2018-07-06T09:23:39.836Z,70.32
2018-07-06T09:26:40.887Z,70.42
2018-07-06T09:27:49.594Z,70.13
2018-07-06T09:30:01.792Z,70.61
2018-07-06T09:32:18.394Z,70.32
2018-07-06T09:33:19.638Z,69.64
2018-07-06T09:34:14.212Z,69.55
2018-07-06T09:36:36.241Z,70.13
2018-07-06T09:37:48.023Z,70.51
2018-07-06T09:38:49.668Z,69.49
2018-07-06T09:40:58.575Z,67.46
2018-07-06T09:42:04.693Z,68.43
2018-07-06T09:43:04.761Z,67.27
2018-07-06T09:44:08.543Z,67.27
2018-07-06T09:45:12.134Z,67.36
2018-07-06T09:47:30.067Z,67.27
2018-07-06T09:48:40.008Z,67.17
2018-07-06T09:49:39.195Z,68.13
2018-07-06T09:50:39.816Z,67.85
2018-07-06T09:51:52.007Z,66.59
2018-07-06T09:53:03.997Z,66.69
2018-07-06T09:55:13.128Z,67.46
2018-07-06T09:57:37.920Z,66.91
2018-07-06T09:58:26.353Z,67.30
2018-07-06T09:59:27.691Z,66.14
2018-07-06T10:00:53.197Z,66.33
2018-07-06T10:02:58.434Z,65.37
2018-07-06T10:04:06.241Z,66.14
2018-07-06T10:06:10.094Z,66.14
2018-07-06T10:07:42.185Z,66.05
2018-07-06T10:09:37.283Z,66.17
2018-07-06T10:11:35.146Z,65.40
2018-07-06T10:12:52.152Z,65.40
2018-07-06T10:14:56.375Z,64.92
2018-07-06T10:16:44.298Z,65.24
2018-07-06T10:17:24.538Z,64.76
2018-07-06T10:18:24.656Z,64.18
2018-07-06T10:19:19.635Z,63.79
2018-07-06T10:20:56.826Z,63.40
2018-07-06T10:21:52.145Z,63.40
2018-07-06T10:22:54.715Z,63.40
2018-07-06T10:23:48.339Z,64.01
2018-07-06T10:25:06.065Z,63.14
2018-07-06T10:26:10.570Z,63.24
2018-07-06T10:27:12.118Z,63.05
2018-07-06T10:28:21.130Z,62.85
2018-07-06T10:29:18.269Z,63.05
2018-07-06T10:30:14.654Z,63.05
2018-07-06T10:31:21.252Z,62.76
2018-07-06T10:33:37.533Z,63.14
2018-07-06T10:34:42.573Z,63.14
2018-07-06T10:35:46.675Z,62.88
2018-07-06T10:36:52.724Z,63.08
2018-07-06T10:37:55.699Z,62.11
2018-07-06T10:39:03.492Z,61.43
2018-07-06T10:40:01.217Z,61.63
2018-07-06T10:42:13.740Z,61.85
2018-07-06T10:43:34.034Z,60.69
2018-07-06T10:44:33.948Z,60.85
2018-07-06T10:45:36.300Z,62.21
2018-07-06T10:47:45.528Z,62.11
2018-07-06T10:50:04.661Z,63.56
2018-07-06T10:51:03.113Z,62.72
2018-07-06T10:52:05.425Z,61.66
2018-07-06T10:53:10.753Z,63.31
2018-07-06T10:54:17.661Z,60.69
2018-07-06T10:55:30.021Z,59.27
2018-07-06T10:56:29.924Z,59.46
2018-07-06T10:57:40.889Z,59.94
2018-07-06T11:02:02.113Z,58.14
2018-07-06T11:02:54.949Z,58.59
2018-07-06T11:04:09.250Z,57.71
2018-07-06T11:06:15.451Z,57.62
2018-07-06T11:07:23.856Z,57.43
2018-07-06T11:08:32.667Z,58.23
2018-07-06T11:09:37.695Z,58.23
2018-07-06T11:10:27.253Z,57.55
2018-07-06T11:11:40.993Z,58.81
2018-07-06T11:12:51.842Z,57.84
2018-07-06T11:14:00.963Z,57.17
2018-07-06T11:15:12.440Z,57.55
2018-07-06T11:16:16.749Z,56.77
2018-07-06T11:17:15.935Z,56.97
2018-07-06T11:18:38.165Z,56.87
2018-07-06T11:20:43.612Z,57.09
2018-07-06T11:21:26.611Z,57.68
2018-07-06T11:22:53.652Z,58.26
2018-07-06T11:23:54.171Z,58.06
2018-07-06T11:24:50.599Z,56.81
2018-07-06T11:26:00.944Z,57.12
2018-07-06T11:27:00.623Z,57.90
2018-07-06T11:27:56.453Z,57.70
2018-07-06T11:29:08.029Z,57.70
2018-07-06T11:30:16.739Z,56.54
2018-07-06T11:31:21.867Z,55.18
2018-07-06T11:32:26.787Z,55.18
2018-07-06T11:33:30.687Z,55.38
2018-07-06T11:34:36.124Z,54.90
2018-07-06T11:35:39.673Z,54.70
2018-07-06T11:39:07.899Z,56.35
2018-07-06T11:40:13.839Z,56.25
2018-07-06T11:41:10.571Z,56.05
2018-07-06T11:42:15.901Z,55.87
2018-07-06T11:43:16.725Z,55.18
2018-07-06T11:45:35.375Z,55.21
2018-07-06T11:46:38.455Z,55.50
2018-07-06T11:48:45.125Z,53.66
2018-07-06T11:49:53.528Z,53.66
2018-07-06T11:50:52.510Z,53.37
2018-07-06T11:52:16.786Z,53.66
2018-07-06T11:54:08.709Z,53.37
2018-07-06T11:55:20.597Z,53.49
2018-07-06T11:56:29.308Z,53.00
2018-07-06T11:57:30.241Z,52.42
2018-07-06T11:58:47.036Z,52.62
2018-07-06T11:59:38.235Z,53.20
2018-07-06T12:00:50.429Z,53.39
2018-07-06T12:01:48.341Z,54.66
2018-07-06T12:03:01.401Z,53.30
2018-07-06T12:04:02.648Z,52.42
2018-07-06T12:05:21.074Z,52.23
2018-07-06T12:07:33.272Z,52.33
2018-07-06T12:08:25.189Z,52.11
2018-07-06T12:09:30.010Z,51.84
2018-07-06T12:11:41.493Z,52.62
2018-07-06T12:13:22.560Z,53.00
2018-07-06T12:14:08.744Z,52.72
2018-07-06T12:14:54.621Z,50.29
2018-07-06T12:16:02.720Z,50.68
2018-07-06T12:20:31.518Z,50.58
2018-07-06T12:21:54.873Z,50.77
2018-07-06T12:23:51.100Z,52.03
2018-07-06T12:24:52.538Z,51.87
2018-07-06T12:25:55.720Z,51.97
2018-07-06T12:26:58.910Z,52.06
2018-07-06T12:28:11.811Z,50.77
2018-07-06T12:29:11.553Z,51.06
2018-07-06T12:32:28.732Z,50.29
2018-07-06T12:33:40.721Z,50.48
2018-07-06T12:34:36.528Z,50.38
2018-07-06T12:35:52.304Z,50.77
2018-07-06T12:38:14.028Z,50.68
2018-07-06T12:39:05.646Z,50.38
2018-07-06T12:41:25.518Z,50.38
2018-07-06T12:47:43.068Z,50.96
2018-07-06T12:48:58.742Z,51.93
2018-07-06T12:50:01.619Z,51.62
2018-07-06T12:51:02.658Z,51.33
2018-07-06T12:52:20.780Z,52.11
2018-07-06T12:53:23.242Z,52.01
2018-07-06T12:54:26.940Z,51.43
2018-07-06T12:55:22.438Z,50.94
2018-07-06T12:56:26.856Z,51.33
2018-07-06T12:57:36.788Z,51.04
2018-07-06T12:58:38.408Z,51.72
2018-07-06T12:59:43.252Z,51.43
2018-07-06T13:01:03.432Z,50.74
2018-07-06T13:01:57.704Z,50.74
2018-07-06T13:03:09.487Z,52.01
2018-07-06T13:04:14.726Z,52.11
2018-07-06T13:05:17.078Z,50.94
2018-07-06T13:06:36.438Z,51.16
2018-07-06T13:07:22.009Z,51.55
2018-07-06T13:08:24.069Z,51.84
2018-07-06T13:09:50.387Z,52.03
2018-07-06T13:11:45.796Z,52.13
2018-07-06T13:13:01.672Z,49.71
2018-07-06T13:14:13.863Z,49.73
2018-07-06T13:15:01.795Z,50.51
2018-07-06T13:17:11.125Z,49.12
2018-07-06T13:18:43.802Z,49.32
2018-07-06T13:19:42.877Z,49.22
2018-07-06T13:20:36.228Z,50.38
2018-07-06T13:21:41.876Z,50.38
2018-07-06T13:22:38.186Z,50.87
2018-07-06T13:23:46.692Z,50.29
2018-07-06T13:26:07.498Z,49.99
2018-07-06T13:27:30.233Z,49.90
2018-07-06T13:28:08.025Z,50.38
2018-07-06T13:29:31.792Z,48.05
2018-07-06T13:30:13.972Z,47.96
2018-07-06T13:33:04.368Z,48.44
2018-07-06T13:35:53.714Z,47.86
2018-07-06T13:38:04.510Z,49.24
2018-07-06T13:41:18.246Z,48.37
2018-07-06T13:42:49.586Z,48.18
2018-07-06T13:43:38.332Z,47.88
2018-07-06T13:47:02.315Z,46.50
2018-07-06T13:47:48.906Z,47.38
2018-07-06T13:48:50.855Z,47.64
2018-07-06T13:50:33.505Z,48.13
2018-07-06T13:52:11.357Z,47.74
2018-07-06T13:53:27.040Z,48.61
2018-07-06T13:55:06.675Z,47.93
2018-07-06T13:55:39.024Z,48.32
2018-07-06T13:56:29.312Z,48.03
2018-07-06T13:58:52.878Z,48.39
2018-07-06T14:00:50.733Z,49.39
2018-07-06T14:04:25.883Z,49.00
2018-07-06T14:05:24.971Z,49.29
2018-07-06T14:06:23.124Z,49.49
2018-07-06T14:08:47.920Z,48.80
2018-07-06T14:09:42.706Z,48.71
2018-07-06T14:10:46.093Z,49.19
2018-07-06T14:12:02.879Z,49.29
2018-07-06T14:12:55.012Z,49.10
2018-07-06T14:14:12.940Z,49.12
2018-07-06T14:15:10.901Z,48.15
2018-07-06T14:16:13.054Z,48.42
2018-07-06T14:17:25.454Z,48.71
2018-07-06T14:18:30.789Z,48.80
2018-07-06T14:20:42.676Z,49.02
2018-07-06T14:23:18.742Z,50.48
2018-07-06T14:24:03.792Z,48.73
2018-07-06T14:25:10.147Z,47.57
2018-07-06T14:26:06.159Z,47.64
2018-07-06T14:27:25.625Z,47.76
2018-07-06T14:28:06.455Z,48.35
2018-07-06T14:30:07.825Z,48.15
2018-07-06T14:30:24.628Z,48.15
2018-07-06T14:31:27.801Z,48.93
2018-07-06T14:32:44.908Z,49.80
2018-07-06T14:33:38.671Z,49.44
2018-07-06T14:35:10.525Z,48.15
2018-07-06T14:36:02.751Z,48.35
2018-07-06T14:37:14.018Z,48.05
2018-07-06T14:38:13.007Z,47.76
2018-07-06T14:42:27.776Z,47.38
2018-07-06T14:43:30.647Z,47.28
2018-07-06T14:45:05.061Z,47.86
2018-07-06T14:45:45.816Z,47.57
2018-07-06T14:46:46.030Z,47.96
2018-07-06T14:48:34.472Z,48.44
2018-07-06T14:48:58.329Z,49.02
2018-07-06T14:50:05.199Z,48.05
2018-07-06T14:53:28.361Z,47.57
2018-07-06T14:55:53.155Z,48.05
2018-07-06T14:56:35.959Z,48.35
2018-07-06T14:57:40.061Z,48.80
2018-07-06T14:59:06.283Z,48.13
2018-07-06T15:00:01.177Z,47.93
2018-07-06T15:01:19.404Z,47.86
2018-07-06T15:02:17.567Z,48.03
2018-07-06T15:03:14.810Z,48.03
2018-07-06T15:04:32.940Z,47.38
2018-07-06T15:06:27.886Z,47.38
2018-07-06T15:07:44.227Z,49.02
2018-07-06T15:08:38.090Z,47.96
2018-07-06T15:11:12.305Z,47.96
2018-07-06T15:12:14.517Z,47.66
2018-07-06T15:14:19.698Z,47.38
2018-07-06T15:15:36.403Z,47.57
2018-07-06T15:17:35.082Z,47.47
2018-07-06T15:19:03.756Z,47.57
2018-07-06T15:20:54.864Z,47.55
2018-07-06T15:22:13.506Z,47.83
2018-07-06T15:22:51.811Z,47.86
2018-07-06T15:24:02.563Z,47.45
2018-07-06T15:25:25.813Z,47.83
2018-07-06T15:26:05.452Z,47.83
2018-07-06T15:27:20.717Z,48.61
2018-07-06T15:29:31.985Z,47.83
2018-07-06T15:33:52.604Z,48.13
2018-07-06T15:35:56.193Z,47.83
2018-07-06T15:37:03.777Z,47.35
2018-07-06T15:38:12.391Z,47.35
2018-07-06T15:39:25.916Z,47.93
2018-07-06T15:40:29.707Z,47.93
2018-07-06T15:41:32.476Z,47.35
2018-07-06T15:42:32.181Z,46.96
2018-07-06T15:44:49.290Z,47.16
2018-07-06T15:45:49.195Z,48.05
2018-07-06T15:46:54.026Z,46.77
2018-07-06T15:48:12.762Z,46.96
2018-07-06T15:49:14.204Z,47.25
2018-07-06T15:50:08.481Z,46.86
2018-07-06T15:51:20.666Z,46.19
2018-07-06T15:52:32.654Z,46.38
2018-07-06T15:53:23.648Z,46.86
2018-07-06T15:54:29.499Z,46.98
2018-07-06T15:55:38.522Z,46.21
2018-07-06T15:56:49.373Z,45.89
2018-07-06T15:59:07.510Z,46.28
2018-07-06T16:00:00.760Z,46.28
2018-07-06T16:02:11.833Z,45.89
2018-07-06T16:03:13.785Z,46.38
2018-07-06T16:04:26.849Z,46.98
2018-07-06T16:05:21.997Z,46.77
2018-07-06T16:06:29.372Z,45.89
2018-07-06T16:07:39.924Z,46.01
2018-07-06T16:11:08.624Z,45.62
2018-07-06T16:12:02.276Z,46.69
2018-07-06T16:13:15.084Z,45.72
2018-07-06T16:14:07.674Z,46.01
2018-07-06T16:16:34.866Z,45.82
2018-07-06T16:17:25.758Z,46.21
2018-07-06T16:18:53.209Z,46.41
2018-07-06T16:19:34.925Z,45.14
2018-07-06T16:20:42.278Z,45.62
2018-07-06T16:22:27.536Z,46.31
2018-07-06T16:22:55.493Z,46.21
2018-07-06T16:23:57.343Z,45.92
2018-07-06T16:25:10.760Z,45.62
2018-07-06T16:26:13.738Z,45.43
2018-07-06T16:27:29.922Z,45.62
2018-07-06T16:28:28.810Z,46.21
2018-07-06T16:29:47.754Z,46.60
2018-07-06T16:31:36.083Z,45.99
2018-07-06T16:32:52.793Z,45.82
2018-07-06T16:33:48.293Z,46.11
2018-07-06T16:37:12.379Z,46.11
2018-07-06T16:38:22.726Z,45.53
2018-07-06T16:39:33.691Z,45.53
2018-07-06T16:40:53.051Z,46.60